Time;durP1;ratioP1;P1;durP2;ratioP2;P2;SDS_P1;SDS_P2;PMS_P1;PMS_P2;Temp;Humidity;BMP_temperature;BMP_pressure;BME280_temperature;BME280_humidity;BME280_pressure;Samples;Min_cycle;Max_cycle;Signal;HPM_P1;HPM_P2
2023/10/01 00:00:09;;;;;;;4.00;1.60;;;;;;;13.44;94.58;101943.75;5072994;28;20433;-69
2023/10/01 00:02:37;;;;;;;3.57;1.97;;;;;;;13.44;95.66;101941.84;5072584;28;20877;-69
2023/10/01 00:05:05;;;;;;;6.90;1.90;;;;;;;13.46;96.82;101931.50;5077485;28;20446;-69
2023/10/01 00:07:38;;;;;;;4.60;1.73;;;;;;;13.51;97.94;101919.75;5082414;28;20933;-69
2023/10/01 00:10:10;;;;;;;4.30;1.53;;;;;;;13.57;98.52;101924.03;5082916;28;20951;-69
2023/10/01 00:12:38;;;;;;;5.33;1.23;;;;;;;13.60;98.57;101923.47;5084338;28;20417;-69
2023/10/01 00:15:06;;;;;;;5.57;1.87;;;;;;;13.66;98.62;101933.19;5082475;28;20464;-69
2023/10/01 00:17:33;;;;;;;4.77;1.60;;;;;;;13.71;98.80;101937.78;5082819;28;20536;-69
2023/10/01 00:20:00;;;;;;;3.47;1.50;;;;;;;13.72;99.04;101932.03;5082611;28;20485;-69
2023/10/01 00:22:27;;;;;;;3.97;1.40;;;;;;;13.75;99.39;101934.19;5083077;28;20449;-69
2023/10/01 00:24:56;;;;;;;3.60;1.50;;;;;;;13.75;99.12;101930.66;5083847;28;20507;-69
2023/10/01 00:27:23;;;;;;;3.10;1.47;;;;;;;13.77;99.39;101926.56;5081736;28;20453;-69
2023/10/01 00:29:50;;;;;;;4.33;1.53;;;;;;;13.81;99.39;101921.31;5087214;28;20437;-69
2023/10/01 00:32:17;;;;;;;3.03;1.17;;;;;;;13.83;99.13;101928.09;5084333;28;20806;-70
2023/10/01 00:34:43;;;;;;;3.63;1.47;;;;;;;13.77;99.58;101918.38;5082453;28;20468;-69
2023/10/01 00:37:10;;;;;;;3.73;1.27;;;;;;;13.79;99.94;101927.06;5082887;28;20551;-69
2023/10/01 00:39:37;;;;;;;3.70;1.30;;;;;;;13.86;99.70;101924.00;5083945;28;20483;-70
2023/10/01 00:42:06;;;;;;;5.07;1.70;;;;;;;13.83;99.79;101928.09;5084377;28;20476;-70
2023/10/01 00:44:34;;;;;;;4.20;1.70;;;;;;;13.92;99.50;101913.84;5084815;28;20437;-70
2023/10/01 00:47:04;;;;;;;3.33;1.50;;;;;;;13.91;99.68;101909.50;5084247;28;20557;-70
2023/10/01 00:49:36;;;;;;;3.17;1.20;;;;;;;13.93;99.77;101915.47;5083553;28;20426;-70
2023/10/01 00:52:03;;;;;;;3.30;1.03;;;;;;;13.98;100.00;101918.13;5084213;28;20444;-70
2023/10/01 00:54:30;;;;;;;4.67;1.30;;;;;;;13.98;99.82;101918.13;5083471;28;20442;-70
2023/10/01 00:56:57;;;;;;;3.43;1.67;;;;;;;14.01;100.00;101912.09;5084777;28;20520;-70
2023/10/01 00:59:25;;;;;;;4.07;1.40;;;;;;;14.07;100.00;101914.47;5083956;28;20485;-70
2023/10/01 01:01:53;;;;;;;4.33;1.37;;;;;;;14.07;99.55;101908.19;5085673;28;20441;-70
2023/10/01 01:04:22;;;;;;;3.67;1.40;;;;;;;14.11;99.14;101911.97;5086159;28;20488;-69
2023/10/01 01:06:52;;;;;;;4.40;1.17;;;;;;;14.16;98.65;101901.00;5087321;28;21031;-70
2023/10/01 01:09:20;;;;;;;3.10;1.23;;;;;;;14.18;98.72;101900.72;5086456;28;20505;-70
2023/10/01 01:11:47;;;;;;;2.87;1.30;;;;;;;14.19;98.31;101903.16;5085439;28;20441;-70
2023/10/01 01:14:15;;;;;;;2.30;0.73;;;;;;;14.22;98.49;101897.13;5084416;28;20493;-70
2023/10/01 01:16:45;;;;;;;3.07;0.80;;;;;;;14.26;97.71;101878.28;5082343;28;20461;-70
2023/10/01 01:19:12;;;;;;;2.67;0.93;;;;;;;14.29;97.77;101892.09;5082780;28;20491;-70
2023/10/01 01:21:42;;;;;;;2.80;1.23;;;;;;;14.32;97.75;101886.06;5082417;28;20471;-70
2023/10/01 01:24:10;;;;;;;2.70;1.10;;;;;;;14.35;97.68;101888.22;5082567;28;20433;-70
2023/10/01 01:26:37;;;;;;;3.23;1.00;;;;;;;14.33;95.75;101884.94;5084214;28;20465;-69
2023/10/01 01:29:17;;;;;;;2.60;1.00;;;;;;;14.29;93.28;101891.28;5084066;28;20437;-69
2023/10/01 01:31:45;;;;;;;2.70;1.10;;;;;;;14.25;92.16;101896.50;5084914;28;20512;-70
2023/10/01 01:34:13;;;;;;;2.43;0.73;;;;;;;14.26;92.16;101883.72;5084398;28;20441;-70
2023/10/01 01:36:42;;;;;;;5.53;1.57;;;;;;;14.25;93.32;101888.34;5084085;28;20459;-70
2023/10/01 01:39:27;;;;;;;2.40;0.80;;;;;;;14.27;95.04;101885.34;5083890;28;20481;-70
2023/10/01 01:41:54;;;;;;;2.40;0.90;;;;;;;14.30;96.03;101882.84;5084288;28;20429;-69
2023/10/01 01:44:23;;;;;;;3.10;1.13;;;;;;;14.33;96.61;101875.97;5083603;28;20437;-70
2023/10/01 01:46:49;;;;;;;3.60;1.17;;;;;;;14.35;96.42;101890.13;5083437;28;20460;-69
2023/10/01 01:49:20;;;;;;;4.73;1.77;;;;;;;14.38;96.63;101882.16;5089424;28;20444;-70
2023/10/01 01:51:59;;;;;;;9.50;1.77;;;;;;;14.42;96.49;101878.84;5082753;28;20432;-70
2023/10/01 01:54:29;;;;;;;3.53;1.37;;;;;;;14.45;96.24;101867.34;5082053;28;20524;-70
2023/10/01 01:56:56;;;;;;;3.37;1.00;;;;;;;14.45;96.78;101876.34;5082475;28;20465;-70
2023/10/01 01:59:27;;;;;;;3.70;1.20;;;;;;;14.47;97.08;101871.41;5082229;28;20485;-70
2023/10/01 02:01:55;;;;;;;3.23;1.07;;;;;;;14.52;96.65;101873.25;5081566;28;20444;-70
2023/10/01 02:04:22;;;;;;;2.80;1.20;;;;;;;14.54;96.88;101873.78;5081633;28;20453;-70
2023/10/01 02:06:50;;;;;;;2.43;0.70;;;;;;;14.53;96.63;101872.19;5081440;28;20474;-70
2023/10/01 02:09:19;;;;;;;3.90;1.10;;;;;;;14.54;95.36;101871.06;5081246;28;20472;-70
2023/10/01 02:11:48;;;;;;;2.90;1.10;;;;;;;14.54;94.44;101876.53;5082791;28;20449;-70
2023/10/01 02:14:30;;;;;;;3.73;1.30;;;;;;;14.56;94.67;101875.09;5082091;28;20476;-70
2023/10/01 02:17:03;;;;;;;2.47;0.70;;;;;;;14.58;94.88;101863.91;5082864;28;20472;-70
2023/10/01 02:19:30;;;;;;;3.53;1.10;;;;;;;14.63;95.07;101852.94;5081624;28;20800;-70
2023/10/01 02:22:02;;;;;;;2.47;0.90;;;;;;;14.64;94.50;101855.34;5081598;28;20450;-70
2023/10/01 02:27:18;;;;;;;3.10;1.33;;;;;;;14.68;94.89;101852.03;5080500;28;20461;-70
2023/10/01 02:32:29;;;;;;;3.20;0.63;;;;;;;14.63;95.61;101859.19;5080285;28;20444;-70
2023/10/01 02:34:57;;;;;;;3.03;1.10;;;;;;;14.64;95.40;101843.63;5081458;28;20468;-70
2023/10/01 02:37:29;;;;;;;2.43;0.73;;;;;;;14.64;95.74;101841.72;5081389;28;20453;-70
2023/10/01 02:39:59;;;;;;;3.77;1.30;;;;;;;14.64;95.59;101844.44;5081096;28;20493;-70
2023/10/01 02:42:28;;;;;;;3.33;1.10;;;;;;;14.67;95.55;101843.03;5081230;28;20437;-70
2023/10/01 02:44:55;;;;;;;2.67;1.00;;;;;;;14.63;95.36;101837.38;5080952;28;20447;-70
2023/10/01 02:47:22;;;;;;;3.83;1.20;;;;;;;14.63;95.21;101831.09;5081343;28;20540;-70
2023/10/01 02:49:51;;;;;;;3.30;1.03;;;;;;;14.63;95.54;101833.84;5081046;28;20442;-70
2023/10/01 02:52:17;;;;;;;3.70;1.13;;;;;;;14.61;93.76;101834.16;5081130;28;20491;-70
2023/10/01 02:54:47;;;;;;;2.50;0.90;;;;;;;14.59;92.04;101841.00;5080783;28;20437;-70
2023/10/01 02:57:13;;;;;;;4.23;1.20;;;;;;;14.54;90.42;101841.88;5080553;28;20468;-70
2023/10/01 03:00:11;;;;;;;2.70;1.07;;;;;;;14.53;90.06;101842.19;5081147;28;20473;-70
2023/10/01 03:02:31;;;;;;;4.10;1.30;;;;;;;14.51;90.27;101841.66;5080352;28;20203;-69
2023/10/01 03:05:05;;;;;;;5.60;1.23;;;;;;;14.51;91.91;101838.94;5079518;28;20466;-70
2023/10/01 03:07:38;;;;;;;3.80;1.20;;;;;;;14.54;93.55;101841.88;5082133;28;20466;-70
2023/10/01 03:10:14;;;;;;;4.17;1.27;;;;;;;14.54;94.94;101833.69;5082502;28;20476;-70
2023/10/01 03:12:42;;;;;;;3.43;1.27;;;;;;;14.54;95.18;101830.97;5078979;28;20421;-70
2023/10/01 03:15:23;;;;;;;2.50;0.73;;;;;;;14.56;96.12;101838.84;5078686;28;20946;-70
2023/10/01 03:18:06;;;;;;;3.60;1.10;;;;;;;14.54;97.55;101839.16;5080601;28;20468;-70
2023/10/01 03:23:26;;;;;;;2.50;0.87;;;;;;;14.55;97.79;101840.78;5080373;28;20409;-70
2023/10/01 03:25:58;;;;;;;3.60;1.17;;;;;;;14.55;97.58;101848.94;5081064;28;20453;-70
2023/10/01 03:28:28;;;;;;;2.90;1.30;;;;;;;14.56;98.03;101847.03;5082083;28;20425;-70
2023/10/01 03:31:06;;;;;;;3.60;1.10;;;;;;;14.56;98.19;101849.75;5080779;28;20845;-70
2023/10/01 03:33:37;;;;;;;2.80;1.17;;;;;;;14.56;98.82;101844.31;5080426;28;20414;-70
2023/10/01 03:36:05;;;;;;;3.00;1.13;;;;;;;14.54;97.62;101860.16;5080491;28;20461;-70
2023/10/01 03:38:35;;;;;;;3.00;1.20;;;;;;;14.52;97.29;101865.09;5080495;28;20469;-70
2023/10/01 03:41:07;;;;;;;3.83;1.13;;;;;;;14.56;97.65;101863.38;5081227;28;20485;-70
2023/10/01 03:43:35;;;;;;;3.57;1.50;;;;;;;14.51;98.33;101860.75;5080668;28;20452;-70
2023/10/01 03:46:08;;;;;;;2.83;1.00;;;;;;;14.50;99.06;101854.47;5080027;28;20981;-70
2023/10/01 03:48:57;;;;;;;3.10;1.47;;;;;;;14.46;99.46;101852.63;5078012;28;20440;-70
2023/10/01 03:51:49;;;;;;;5.30;2.20;;;;;;;14.46;99.39;101839.78;5078495;28;20460;-70
2023/10/01 03:54:16;;;;;;;3.40;1.53;;;;;;;14.50;98.89;101845.50;5065973;28;20449;-70
2023/10/01 03:56:47;;;;;;;4.20;1.20;;;;;;;14.49;99.02;101844.69;5061952;28;20525;-70
2023/10/01 03:59:16;;;;;;;4.80;1.03;;;;;;;14.47;99.21;101832.41;5079409;28;20530;-69
2023/10/01 04:04:27;;;;;;;3.87;1.33;;;;;;;14.46;98.96;101828.06;5078137;28;20491;-69
2023/10/01 04:06:55;;;;;;;3.47;1.37;;;;;;;14.45;99.07;101827.28;5078154;28;20469;-69
2023/10/01 04:09:26;;;;;;;5.47;1.57;;;;;;;14.43;99.50;101826.75;5077692;28;20494;-69
2023/10/01 04:12:12;;;;;;;4.83;1.40;;;;;;;14.42;99.65;101821.59;5077372;28;20421;-69
2023/10/01 04:14:39;;;;;;;3.23;1.43;;;;;;;14.39;99.35;101825.75;5076724;28;20437;-69
2023/10/01 04:17:12;;;;;;;2.80;0.97;;;;;;;14.41;99.24;101828.16;5077684;28;20453;-69
2023/10/01 04:19:40;;;;;;;3.67;1.00;;;;;;;14.46;98.98;101830.81;5077023;28;20843;-69
2023/10/01 04:22:09;;;;;;;3.60;1.70;;;;;;;14.42;99.42;101833.31;5076907;28;20842;-69
2023/10/01 04:24:36;;;;;;;4.50;1.50;;;;;;;14.42;99.78;101829.78;5077862;28;20456;-69
2023/10/01 04:27:23;;;;;;;2.60;1.20;;;;;;;14.42;99.45;101846.13;5065001;28;20465;-69
2023/10/01 04:29:57;;;;;;;4.53;1.53;;;;;;;14.38;99.58;101846.72;5065517;28;20437;-69
2023/10/01 04:32:27;;;;;;;3.37;1.67;;;;;;;14.40;100.00;101843.72;5081064;28;20481;-69
2023/10/01 04:34:54;;;;;;;2.90;1.13;;;;;;;14.45;100.00;101846.34;5079773;28;20473;-69
2023/10/01 04:37:36;;;;;;;3.77;1.77;;;;;;;14.46;99.90;101852.63;5082606;28;20568;-69
2023/10/01 04:40:31;;;;;;;4.20;1.70;;;;;;;14.45;99.43;101840.91;5084093;28;20469;-70
2023/10/01 04:42:54;;;;;;;4.43;2.03;;;;;;;14.45;99.20;101843.63;5083607;28;20632;-69
2023/10/01 04:45:25;;;;;;;3.17;1.10;;;;;;;14.44;98.91;101846.66;5084535;28;20477;-69
2023/10/01 04:47:55;;;;;;;2.63;1.20;;;;;;;14.46;97.41;101850.69;5083890;28;20488;-69
2023/10/01 04:50:27;;;;;;;3.10;1.30;;;;;;;14.48;97.25;101834.91;5083455;28;20472;-69
2023/10/01 04:52:58;;;;;;;4.60;1.57;;;;;;;14.49;98.31;101847.41;5082966;28;20417;-69
2023/10/01 04:55:26;;;;;;;3.33;1.50;;;;;;;14.51;97.80;101834.28;5080093;28;20427;-69
2023/10/01 04:57:53;;;;;;;4.73;1.77;;;;;;;14.51;97.82;101838.94;5080784;28;20469;-69
2023/10/01 05:00:22;;;;;;;3.00;1.17;;;;;;;14.53;97.33;101844.91;5079808;28;21082;-69
2023/10/01 05:02:49;;;;;;;3.03;1.50;;;;;;;14.54;97.45;101841.06;5079949;28;20441;-69
2023/10/01 05:05:25;;;;;;;4.63;2.10;;;;;;;14.53;97.40;101837.53;5079594;28;20631;-69
2023/10/01 05:07:55;;;;;;;3.20;1.50;;;;;;;14.54;97.00;101835.63;5079297;28;20464;-69
2023/10/01 05:10:21;;;;;;;5.50;1.40;;;;;;;14.54;95.66;101846.53;5081131;28;20870;-72
2023/10/01 05:12:54;;;;;;;3.07;1.30;;;;;;;14.56;94.75;101836.94;5079584;28;20501;-69
2023/10/01 05:15:25;;;;;;;2.93;1.50;;;;;;;14.53;93.45;101843.00;5082274;28;20417;-69
2023/10/01 05:17:55;;;;;;;4.50;1.47;;;;;;;14.50;92.13;101853.69;5082090;28;20469;-69
2023/10/01 05:20:25;;;;;;;5.43;2.23;;;;;;;14.47;90.82;101846.84;5082425;28;20472;-69
2023/10/01 05:22:54;;;;;;;3.40;1.40;;;;;;;14.45;91.50;101854.53;5081899;28;20499;-69
2023/10/01 05:25:21;;;;;;;5.53;1.50;;;;;;;14.44;91.58;101850.19;5082364;28;20445;-69
2023/10/01 05:27:54;;;;;;;4.10;1.70;;;;;;;14.47;91.72;101851.50;5066705;28;20496;-69
2023/10/01 05:30:36;;;;;;;3.30;1.47;;;;;;;14.53;92.85;101850.38;5085354;28;20426;-70
2023/10/01 05:33:05;;;;;;;3.37;1.50;;;;;;;14.59;94.02;101854.63;5085749;28;20479;-70
2023/10/01 05:35:41;;;;;;;3.10;1.30;;;;;;;14.60;94.35;101848.06;5085441;28;20441;-70
2023/10/01 05:38:10;;;;;;;2.77;1.07;;;;;;;14.60;92.55;101858.97;5086800;28;20432;-70
2023/10/01 05:40:37;;;;;;;3.30;1.50;;;;;;;14.62;92.58;101859.50;5087925;28;20486;-70
2023/10/01 05:43:13;;;;;;;4.60;1.70;;;;;;;14.66;93.00;101857.78;5086239;28;20961;-70
2023/10/01 05:45:41;;;;;;;3.00;1.37;;;;;;;14.73;94.64;101851.94;5085723;28;20433;-70
2023/10/01 05:48:10;;;;;;;5.60;1.73;;;;;;;14.75;95.33;101853.28;5091917;28;20433;-70
2023/10/01 05:50:41;;;;;;;3.13;1.43;;;;;;;14.80;95.75;101852.38;5093764;28;20437;-70
2023/10/01 05:53:09;;;;;;;2.83;1.10;;;;;;;14.83;95.03;101841.69;5086075;28;20524;-70
2023/10/01 05:55:37;;;;;;;3.17;1.33;;;;;;;14.81;93.98;101838.44;5086102;28;21013;-70
2023/10/01 05:58:13;;;;;;;4.33;1.60;;;;;;;14.85;93.27;101834.00;5085566;28;20445;-69
2023/10/01 06:00:45;;;;;;;3.90;1.60;;;;;;;14.91;93.91;101839.38;5080963;28;20563;-68
2023/10/01 06:03:13;;;;;;;4.03;1.80;;;;;;;14.95;92.64;101837.66;5075855;28;20479;-69
2023/10/01 06:05:46;;;;;;;3.23;1.63;;;;;;;15.01;93.09;101840.03;5090413;22;20595;-70
2023/10/01 06:08:17;;;;;;;4.60;2.30;;;;;;;15.04;94.78;101830.41;5075364;28;20461;-69
2023/10/01 06:10:59;;;;;;;4.97;1.90;;;;;;;15.08;95.31;101834.97;5075444;28;20730;-70
2023/10/01 06:13:28;;;;;;;2.67;1.27;;;;;;;15.09;93.51;101833.03;5075179;28;20433;-70
2023/10/01 06:15:56;;;;;;;4.50;1.90;;;;;;;15.09;93.59;101835.78;5075932;28;20468;-70
2023/10/01 06:18:23;;;;;;;3.33;1.60;;;;;;;15.11;92.60;101825.38;5076324;28;20811;-70
2023/10/01 06:20:53;;;;;;;2.70;1.30;;;;;;;15.12;90.88;101833.25;5075652;28;20560;-70
2023/10/01 06:23:20;;;;;;;7.97;2.50;;;;;;;15.13;89.36;101836.78;5075885;28;20495;-70
2023/10/01 06:25:51;;;;;;;3.50;1.60;;;;;;;15.18;90.03;101835.88;5075257;28;20446;-70
2023/10/01 06:28:20;;;;;;;4.03;1.30;;;;;;;15.24;91.08;101843.69;5075101;28;20941;-70
2023/10/01 06:30:48;;;;;;;4.80;1.47;;;;;;;15.28;89.98;101835.72;5075182;28;20429;-70
2023/10/01 06:33:25;;;;;;;4.33;1.50;;;;;;;15.32;89.82;101844.94;5075185;28;20456;-70
2023/10/01 06:38:38;;;;;;;3.70;1.70;;;;;;;15.39;90.71;101835.19;5074431;28;20441;-68
2023/10/01 06:41:06;;;;;;;4.47;1.73;;;;;;;15.45;91.27;101840.56;5074898;28;20573;-67
2023/10/01 06:43:44;;;;;;;3.30;1.70;;;;;;;15.46;88.47;101840.28;5075164;28;20445;-69
2023/10/01 06:46:11;;;;;;;4.20;1.87;;;;;;;15.52;88.64;101835.50;5075071;28;20503;-68
2023/10/01 06:48:39;;;;;;;3.03;1.20;;;;;;;15.57;88.93;101833.47;5074781;28;20504;-68
2023/10/01 06:51:07;;;;;;;2.63;1.20;;;;;;;15.58;87.34;101846.06;5074263;28;20434;-68
2023/10/01 06:53:45;;;;;;;3.50;1.40;;;;;;;15.57;86.36;101847.13;5074425;28;20445;-68
2023/10/01 06:56:14;;;;;;;8.03;1.90;;;;;;;15.58;86.06;101835.13;5074136;28;20457;-68
2023/10/01 06:58:41;;;;;;;5.83;1.73;;;;;;;15.58;85.79;101843.31;5073477;28;20882;-68
2023/10/01 07:01:34;;;;;;;3.27;1.40;;;;;;;15.64;86.24;101846.78;5074477;28;20481;-68
2023/10/01 07:03:56;;;;;;;3.80;1.40;;;;;;;15.68;86.18;101849.72;5074327;28;20452;-68
2023/10/01 07:06:26;;;;;;;2.70;1.00;;;;;;;15.71;84.35;101847.16;5074145;28;21098;-68
2023/10/01 07:08:53;;;;;;;4.07;1.70;;;;;;;15.75;85.08;101859.09;5074734;28;20529;-68
2023/10/01 07:11:21;;;;;;;6.33;1.97;;;;;;;15.73;85.30;101858.59;5074501;28;20452;-68
2023/10/01 07:13:52;;;;;;;4.03;1.47;;;;;;;15.81;84.98;101863.38;5074700;28;20442;-68
2023/10/01 07:16:35;;;;;;;5.20;1.80;;;;;;;15.85;84.80;101855.38;5074324;28;20467;-68
2023/10/01 07:19:02;;;;;;;6.00;1.80;;;;;;;15.89;85.03;101867.28;5074620;28;20491;-68
2023/10/01 07:21:31;;;;;;;4.40;1.53;;;;;;;15.92;82.27;101861.22;5074222;28;20542;-68
2023/10/01 07:23:58;;;;;;;4.50;1.80;;;;;;;15.93;82.63;101867.50;5073960;28;20445;-68
2023/10/01 07:26:25;;;;;;;4.40;1.77;;;;;;;15.97;84.19;101857.56;5074407;28;20465;-68
2023/10/01 07:28:55;;;;;;;4.23;1.50;;;;;;;15.97;83.12;101857.56;5073982;28;20445;-68
2023/10/01 07:31:24;;;;;;;6.10;1.60;;;;;;;15.98;83.30;101860.00;5074258;28;20770;-68
2023/10/01 07:33:53;;;;;;;2.50;0.93;;;;;;;15.98;84.73;101864.66;5073808;28;20925;-68
2023/10/01 07:36:20;;;;;;;2.67;1.10;;;;;;;16.08;82.60;101865.25;5074335;28;20497;-68
2023/10/01 07:38:48;;;;;;;2.80;1.13;;;;;;;16.17;81.76;101870.00;5074494;28;20492;-68
2023/10/01 07:41:16;;;;;;;4.20;1.70;;;;;;;16.27;80.44;101870.56;5073843;28;20860;-68
2023/10/01 07:43:43;;;;;;;6.30;1.80;;;;;;;16.37;80.72;101875.00;5073891;28;20503;-68
2023/10/01 07:46:10;;;;;;;4.87;1.90;;;;;;;16.52;80.57;101879.31;5073662;28;20457;-67
2023/10/01 07:48:38;;;;;;;3.13;1.47;;;;;;;16.65;78.73;101879.25;5073760;28;20477;-67
2023/10/01 07:51:22;;;;;;;3.20;1.43;;;;;;;16.82;79.36;101886.81;5073514;28;21045;-67
2023/10/01 07:53:51;;;;;;;3.93;1.60;;;;;;;16.96;80.33;101883.22;5073843;28;20436;-68
2023/10/01 07:56:21;;;;;;;3.93;1.70;;;;;;;17.00;78.17;101875.97;5073717;28;20548;-68
2023/10/01 07:58:48;;;;;;;3.20;1.43;;;;;;;17.10;78.09;101868.31;5074252;28;20437;-68
2023/10/01 08:04:08;;;;;;;5.07;1.07;;;;;;;17.21;78.21;101866.09;5062738;28;20451;-68
2023/10/01 08:06:42;;;;;;;4.43;1.43;;;;;;;17.26;77.89;101865.97;5073763;28;20972;-68
2023/10/01 08:09:13;;;;;;;5.50;1.40;;;;;;;17.28;77.03;101874.69;5074070;28;20527;-68
2023/10/01 08:12:05;;;;;;;3.00;1.10;;;;;;;17.23;75.85;101865.81;5077369;28;20433;-68
2023/10/01 08:14:33;;;;;;;3.50;1.60;;;;;;;17.26;76.66;101865.16;5077904;28;20806;-68
2023/10/01 08:17:00;;;;;;;3.57;1.77;;;;;;;17.29;77.07;101868.09;5077521;28;20492;-68
2023/10/01 08:19:41;;;;;;;2.93;1.20;;;;;;;17.29;77.64;101868.09;5077979;28;20441;-68
2023/10/01 08:22:14;;;;;;;3.43;1.30;;;;;;;17.27;77.23;101875.03;5077671;28;20492;-68
2023/10/01 08:24:45;;;;;;;3.07;1.50;;;;;;;17.17;78.36;101873.34;5077901;28;20897;-68
2023/10/01 08:27:14;;;;;;;3.27;1.13;;;;;;;17.13;77.43;101883.28;5077614;28;20488;-68
2023/10/01 08:32:23;;;;;;;2.80;1.10;;;;;;;17.16;77.88;101874.47;5077341;28;20476;-68
2023/10/01 08:35:01;;;;;;;2.77;1.27;;;;;;;17.25;78.46;101874.50;5077487;28;20524;-67
2023/10/01 08:37:31;;;;;;;13.50;1.97;;;;;;;17.32;76.82;101881.16;5077487;28;20468;-71
2023/10/01 08:39:58;;;;;;;3.17;1.37;;;;;;;17.40;76.56;101874.91;5077185;28;20441;-71
2023/10/01 08:42:28;;;;;;;3.20;1.20;;;;;;;17.51;76.19;101882.84;5076992;28;20481;-71
2023/10/01 08:45:02;;;;;;;4.03;1.37;;;;;;;17.50;75.62;101895.75;5077696;28;20434;-70
2023/10/01 08:47:34;;;;;;;4.07;1.60;;;;;;;17.55;76.38;101889.31;5077124;28;20461;-69
2023/10/01 08:50:17;;;;;;;3.70;1.70;;;;;;;17.68;76.47;101891.13;5076636;28;20921;-69
2023/10/01 08:52:52;;;;;;;2.73;1.20;;;;;;;17.81;76.02;101898.47;5077712;28;20422;-69
2023/10/01 08:55:23;;;;;;;3.63;1.70;;;;;;;17.85;77.23;101893.97;5076946;28;20520;-69
2023/10/01 08:57:52;;;;;;;3.07;1.20;;;;;;;17.90;76.04;101891.09;5077022;28;20457;-70
2023/10/01 09:00:20;;;;;;;6.80;1.93;;;;;;;17.94;74.38;101890.44;5077707;28;20452;-69
2023/10/01 09:02:51;;;;;;;3.67;1.70;;;;;;;18.01;72.70;101885.28;5076884;28;20541;-69
2023/10/01 09:05:24;;;;;;;3.33;1.00;;;;;;;17.98;73.38;101878.53;5076736;28;20452;-69
2023/10/01 09:08:14;;;;;;;3.40;1.40;;;;;;;18.00;75.00;101873.50;5077017;28;20544;-69
2023/10/01 09:10:49;;;;;;;3.50;1.50;;;;;;;18.07;73.97;101886.78;5076315;28;20456;-71
2023/10/01 09:13:21;;;;;;;4.50;1.73;;;;;;;18.09;72.57;101887.25;5076864;28;20436;-69
2023/10/01 09:15:53;;;;;;;3.50;1.50;;;;;;;18.08;72.70;101897.41;5077058;28;20425;-72
2023/10/01 09:18:22;;;;;;;5.43;1.73;;;;;;;18.03;73.05;101894.81;5076679;28;20432;-72
2023/10/01 09:21:06;;;;;;;2.83;1.27;;;;;;;18.07;74.72;101889.50;5076664;28;20491;-74
2023/10/01 09:24:11;;;;;;;2.80;1.20;;;;;;;18.20;73.70;101882.28;5076025;28;20426;-72
2023/10/01 09:26:43;;;;;;;3.40;1.70;;;;;;;18.31;73.91;101873.41;5076807;28;20472;-70
2023/10/01 09:29:32;;;;;;;3.83;1.80;;;;;;;18.52;75.74;101878.25;5076407;28;20871;-71
2023/10/01 09:31:59;;;;;;;3.27;1.43;;;;;;;18.72;75.34;101871.31;5076362;28;20449;-70
2023/10/01 09:34:33;;;;;;;5.43;1.83;;;;;;;18.92;75.47;101861.63;5076282;28;20456;-70
2023/10/01 09:37:04;;;;;;;6.77;2.10;;;;;;;19.01;72.85;101856.91;5076360;28;20457;-70
2023/10/01 09:39:41;;;;;;;3.80;1.87;;;;;;;19.11;70.65;101846.38;5076736;28;20529;-70
2023/10/01 09:44:53;;;;;;;4.80;1.67;;;;;;;19.28;68.49;101864.72;5075928;28;20456;-70
2023/10/01 09:47:24;;;;;;;4.17;1.70;;;;;;;19.35;69.41;101856.81;5075827;28;20461;-70
2023/10/01 09:49:53;;;;;;;3.20;1.60;;;;;;;19.39;70.61;101852.25;5076475;28;20413;-70
2023/10/01 09:52:31;;;;;;;4.20;2.10;;;;;;;19.47;68.37;101847.03;5076039;28;20437;-70
2023/10/01 09:55:05;;;;;;;3.67;1.33;;;;;;;19.73;67.49;101845.00;5076115;28;20413;-70
2023/10/01 09:57:37;;;;;;;3.60;1.90;;;;;;;19.64;67.93;101852.47;5076043;28;20500;-70
2023/10/01 10:00:18;;;;;;;4.30;2.17;;;;;;;19.75;66.42;101855.69;5075632;28;20894;-70
2023/10/01 10:02:51;;;;;;;4.60;1.53;;;;;;;19.68;67.41;101849.88;5075860;28;20484;-73
2023/10/01 10:05:24;;;;;;;6.63;2.20;;;;;;;19.64;67.61;101844.22;5075652;28;20515;-69
2023/10/01 10:07:52;;;;;;;4.90;2.53;;;;;;;19.56;66.62;101856.84;5076015;28;20450;-71
2023/10/01 10:10:24;;;;;;;5.67;2.60;;;;;;;19.65;67.45;101848.59;5088357;28;20433;-70
2023/10/01 10:12:56;;;;;;;4.10;2.13;;;;;;;19.77;67.47;101861.63;5091366;28;20451;-70
2023/10/01 10:15:57;;;;;;;4.30;2.13;;;;;;;19.85;66.20;101858.03;5085502;28;20422;-70
2023/10/01 10:18:25;;;;;;;4.83;1.87;;;;;;;19.90;67.22;101855.88;5073842;28;20453;-70
2023/10/01 10:20:59;;;;;;;6.53;2.30;;;;;;;20.08;65.21;101853.81;5075966;28;20499;-70
2023/10/01 10:23:30;;;;;;;5.27;2.47;;;;;;;20.11;65.74;101857.88;5075505;28;20592;-70
2023/10/01 10:26:13;;;;;;;3.60;2.07;;;;;;;20.13;64.13;101863.81;5075859;28;20493;-70
2023/10/01 10:28:56;;;;;;;5.40;2.67;;;;;;;20.01;64.80;101861.81;5073845;28;20481;-70
2023/10/01 10:31:37;;;;;;;4.20;2.50;;;;;;;19.95;63.95;101867.84;5074958;28;20448;-71
2023/10/01 10:34:21;;;;;;;5.37;2.10;;;;;;;20.00;62.46;101860.19;5074730;28;20456;-71
2023/10/01 10:36:51;;;;;;;9.37;2.13;;;;;;;19.94;63.01;101857.97;5074914;28;20461;-70
2023/10/01 10:40:26;;;;;;;8.97;2.23;;;;;;;19.85;62.79;101853.34;5074951;28;20437;-70
2023/10/01 10:43:19;;;;;;;3.80;2.17;;;;;;;19.91;62.95;101864.94;5075323;28;20472;-70
2023/10/01 10:46:01;;;;;;;3.20;1.70;;;;;;;20.06;63.41;101847.88;5072918;28;20546;-70
2023/10/01 10:48:49;;;;;;;4.63;2.13;;;;;;;20.21;62.47;101843.69;5075181;28;20507;-70
2023/10/01 10:51:45;;;;;;;3.83;1.90;;;;;;;20.40;61.48;101845.97;5068156;28;20453;-69
2023/10/01 10:54:16;;;;;;;4.87;2.17;;;;;;;20.45;60.93;101847.72;5075080;28;20422;-70
2023/10/01 10:56:44;;;;;;;5.50;2.50;;;;;;;20.60;62.04;101856.19;5075024;28;20560;-70
2023/10/01 10:59:14;;;;;;;5.03;2.43;;;;;;;20.80;59.45;101849.03;5075011;28;20441;-70
2023/10/01 11:01:47;;;;;;;5.40;2.10;;;;;;;20.98;58.43;101848.84;5074769;28;20465;-70
2023/10/01 11:04:16;;;;;;;3.80;1.80;;;;;;;21.13;59.61;101853.72;5074281;28;20489;-71
2023/10/01 11:06:43;;;;;;;3.93;2.10;;;;;;;21.42;58.23;101861.00;5074635;28;20462;-70
2023/10/01 11:09:22;;;;;;;3.90;1.90;;;;;;;21.55;56.51;101867.31;5074862;28;20473;-70
2023/10/01 11:11:50;;;;;;;4.40;1.90;;;;;;;21.77;56.53;101858.59;5074566;28;20497;-70
2023/10/01 11:14:17;;;;;;;4.20;2.00;;;;;;;21.89;55.14;101860.53;5074913;28;20528;-70
2023/10/01 11:16:46;;;;;;;7.00;2.10;;;;;;;21.96;55.57;101854.41;5074112;28;20544;-70
2023/10/01 11:19:14;;;;;;;3.20;1.43;;;;;;;22.12;55.50;101852.59;5074077;28;20517;-70
2023/10/01 11:21:58;;;;;;;3.57;2.00;;;;;;;22.47;54.03;101857.53;5074198;28;20543;-71
2023/10/01 11:24:29;;;;;;;3.70;2.10;;;;;;;22.92;53.33;101847.00;5074278;28;20786;-70
2023/10/01 11:27:18;;;;;;;10.00;1.60;;;;;;;22.93;52.27;101842.25;5074475;28;20526;-70
2023/10/01 11:29:57;;;;;;;4.30;1.70;;;;;;;22.92;51.92;101837.91;5074133;28;20444;-70
2023/10/01 11:33:01;;;;;;;3.67;2.03;;;;;;;23.45;49.49;101845.94;5073912;28;20428;-70
2023/10/01 11:35:33;;;;;;;5.80;1.73;;;;;;;23.56;48.67;101836.75;5073840;28;20994;-70
2023/10/01 11:38:03;;;;;;;4.77;1.60;;;;;;;23.26;50.24;101838.38;5074412;28;20463;-70
2023/10/01 11:41:06;;;;;;;3.93;1.70;;;;;;;23.01;50.19;101832.19;5074211;28;20532;-70
2023/10/01 11:43:27;;;;;;;4.50;1.60;;;;;;;23.04;50.82;101853.63;5073830;28;20488;-70
2023/10/01 11:46:19;;;;;;;3.77;1.77;;;;;;;23.40;49.54;101839.53;5073536;28;20460;-70
2023/10/01 11:49:03;;;;;;;3.93;1.40;;;;;;;23.65;49.19;101831.06;5074130;28;20410;-70
2023/10/01 11:51:32;;;;;;;3.03;1.30;;;;;;;23.50;50.87;101831.84;5074027;28;20420;-70
2023/10/01 11:54:09;;;;;;;4.20;1.73;;;;;;;23.18;51.46;101842.91;5074427;28;20448;-70
2023/10/01 11:56:37;;;;;;;3.43;1.40;;;;;;;22.88;51.74;101837.78;5073484;28;20808;-70
2023/10/01 11:59:05;;;;;;;3.53;1.70;;;;;;;22.73;52.72;101830.28;5073581;28;20856;-70
2023/10/01 12:01:39;;;;;;;3.43;1.50;;;;;;;22.49;52.03;101838.66;5073902;28;20488;-71
2023/10/01 12:04:07;;;;;;;4.53;1.50;;;;;;;22.26;52.24;101839.19;5073961;28;20480;-70
2023/10/01 12:06:38;;;;;;;3.60;1.20;;;;;;;22.12;52.96;101838.78;5087016;22;20501;-70
2023/10/01 12:09:05;;;;;;;5.60;1.73;;;;;;;21.97;53.75;101829.25;5073313;28;20425;-69